Terminal Aerodrome Forecast
Issued by NWS Central Illinois

Home | Current Version | Previous Version | Text Only | Print | Product List | Glossary On
Versions: 1 2 3 4 5 6 7 8 9 10 11 12 13 14 15 16 17 18 19 20 21 22 23 24 25 26 27
085
FTUS43 KILX 141801 AAA
TAFSPI
TAF AMD
KSPI 141801Z 1418/1518 14010G20KT 1SM -SN BR OVC010
      TEMPO 1418/1419 1/2SM SN FZFG VV006
     FM141900 14010G20KT 1 1/2SM -SN BR OVC007
      TEMPO 1419/1423 4SM -SN BR SCT007 OVC015
     FM142300 15010KT 4SM BR VCSH BKN006 OVC012
     FM150400 17007KT 4SM BR OVC007
     FM151300 20006KT 5SM BR OVC015=

USA.gov is the U.S. government's official web portal to all federal, state and local government web resources and services.